Time;durP1;ratioP1;P1;durP2;ratioP2;P2;SDS_P1;SDS_P2;PMS_P1;PMS_P2;Temp;Humidity;BMP_temperature;BMP_pressure;BME280_temperature;BME280_humidity;BME280_pressure;Samples;Min_cycle;Max_cycle;Signal;HPM_P1;HPM_P2
2023/06/21 00:02:19;;;;;;;10.10;6.10;;;22.90;98.00;;;;;;5013509;28;20775;-66
2023/06/21 00:04:46;;;;;;;11.27;6.37;;;22.80;98.00;;;;;;5013391;28;20483;-66
2023/06/21 00:07:13;;;;;;;10.87;5.50;;;22.60;98.00;;;;;;5013102;28;20455;-66
2023/06/21 00:09:42;;;;;;;10.80;5.30;;;22.60;98.00;;;;;;5012996;28;20814;-66
2023/06/21 00:12:10;;;;;;;13.33;7.00;;;22.50;98.00;;;;;;5013218;28;20962;-66
2023/06/21 00:14:37;;;;;;;12.73;6.23;;;22.40;98.00;;;;;;5013221;28;20454;-66
2023/06/21 00:17:05;;;;;;;10.17;5.47;;;22.40;98.00;;;;;;5012865;28;20455;-66
2023/06/21 00:19:33;;;;;;;14.83;5.73;;;22.30;98.00;;;;;;5013146;28;20854;-66
2023/06/21 00:22:00;;;;;;;10.83;5.13;;;22.20;98.00;;;;;;5013074;28;20463;-66
2023/06/21 00:24:30;;;;;;;11.07;6.00;;;22.20;98.00;;;;;;5013283;28;20554;-66
2023/06/21 00:26:59;;;;;;;13.20;6.17;;;22.30;98.00;;;;;;5012752;28;20521;-66
2023/06/21 00:29:25;;;;;;;9.93;5.90;;;22.40;98.00;;;;;;5013187;28;20938;-66
2023/06/21 00:31:53;;;;;;;10.00;5.93;;;22.40;98.00;;;;;;5013046;28;20447;-66
2023/06/21 00:34:20;;;;;;;18.47;6.70;;;22.50;98.00;;;;;;5013299;28;20806;-66
2023/06/21 00:36:47;;;;;;;15.73;6.90;;;22.50;98.00;;;;;;5013175;28;20455;-66
2023/06/21 00:39:14;;;;;;;15.70;6.37;;;22.40;98.00;;;;;;5013277;28;20475;-66
2023/06/21 00:41:41;;;;;;;11.23;5.87;;;22.50;98.00;;;;;;5013254;28;20854;-66
2023/06/21 00:44:10;;;;;;;13.40;6.40;;;22.50;98.00;;;;;;5013243;28;20459;-66
2023/06/21 00:46:37;;;;;;;11.00;6.17;;;22.70;98.00;;;;;;5012569;28;20452;-66
2023/06/21 00:49:04;;;;;;;11.50;6.00;;;22.60;98.00;;;;;;5012816;28;20501;-66
2023/06/21 00:51:32;;;;;;;16.33;6.13;;;22.40;98.00;;;;;;5012647;28;20452;-66
2023/06/21 00:53:59;;;;;;;11.77;6.00;;;22.20;98.00;;;;;;5012566;28;20517;-66
2023/06/21 00:56:27;;;;;;;13.37;6.13;;;22.20;98.00;;;;;;5012576;28;20502;-66
2023/06/21 00:58:56;;;;;;;11.50;6.27;;;22.30;98.00;;;;;;5011278;28;20464;-66
2023/06/21 01:01:26;;;;;;;9.77;5.87;;;22.20;98.00;;;;;;5012499;28;20490;-66
2023/06/21 01:03:53;;;;;;;16.67;6.80;;;22.10;98.00;;;;;;5012672;28;20491;-66
2023/06/21 01:06:28;;;;;;;19.13;6.57;;;22.10;98.00;;;;;;5012496;28;20513;-66
2023/06/21 01:09:03;;;;;;;14.30;6.40;;;22.00;98.00;;;;;;5012307;28;20509;-66
2023/06/21 01:11:32;;;;;;;12.77;6.23;;;21.90;98.00;;;;;;5012495;28;20459;-66
2023/06/21 01:14:12;;;;;;;12.57;5.93;;;21.90;98.00;;;;;;5012325;28;20467;-66
2023/06/21 01:16:44;;;;;;;11.47;6.20;;;22.00;98.00;;;;;;5012355;28;20615;-66
2023/06/21 01:19:28;;;;;;;14.53;6.47;;;22.00;98.00;;;;;;5010655;28;20471;-66
2023/06/21 01:21:58;;;;;;;12.50;6.00;;;21.90;98.00;;;;;;5012179;28;20509;-66
2023/06/21 01:24:40;;;;;;;10.53;6.03;;;21.70;98.00;;;;;;5012462;28;20879;-66
2023/06/21 01:27:23;;;;;;;10.23;5.70;;;21.60;98.00;;;;;;5011904;28;20542;-66
2023/06/21 01:29:55;;;;;;;10.03;6.17;;;21.70;98.00;;;;;;5011166;28;20459;-66
2023/06/21 01:32:23;;;;;;;10.77;6.00;;;21.60;98.00;;;;;;5012210;28;20804;-66
2023/06/21 01:34:51;;;;;;;10.40;5.93;;;21.70;98.00;;;;;;5012208;28;20845;-66
2023/06/21 01:37:20;;;;;;;14.10;6.23;;;21.60;98.00;;;;;;5012381;28;20970;-66
2023/06/21 01:39:48;;;;;;;11.13;6.33;;;21.40;98.00;;;;;;5012321;28;20482;-66
2023/06/21 01:42:16;;;;;;;16.07;5.77;;;21.40;98.00;;;;;;5011957;28;20455;-66
2023/06/21 01:44:43;;;;;;;12.17;6.43;;;21.30;98.00;;;;;;5012153;28;20567;-66
2023/06/21 01:47:13;;;;;;;10.23;6.03;;;21.20;98.00;;;;;;5010594;28;20479;-66
2023/06/21 01:49:42;;;;;;;11.90;5.83;;;21.10;98.00;;;;;;5012147;28;20463;-66
2023/06/21 01:52:09;;;;;;;10.40;5.97;;;21.10;98.00;;;;;;5011881;28;20460;-66
2023/06/21 01:54:44;;;;;;;13.10;6.53;;;21.10;98.00;;;;;;5011914;28;20443;-66
2023/06/21 01:57:11;;;;;;;11.13;5.60;;;21.10;98.00;;;;;;5011665;28;20462;-66
2023/06/21 01:59:38;;;;;;;9.27;5.63;;;21.10;98.00;;;;;;5011728;28;20483;-66
2023/06/21 02:02:08;;;;;;;11.43;6.20;;;21.30;98.00;;;;;;5011840;28;21093;-66
2023/06/21 02:04:38;;;;;;;14.63;6.13;;;21.40;98.00;;;;;;5010716;28;20474;-66
2023/06/21 02:07:07;;;;;;;11.90;6.43;;;21.40;98.00;;;;;;5011819;28;20455;-66
2023/06/21 02:09:35;;;;;;;12.43;6.50;;;21.40;98.00;;;;;;5011856;28;20513;-66
2023/06/21 02:12:02;;;;;;;12.77;6.10;;;21.30;98.00;;;;;;5011617;28;20455;-66
2023/06/21 02:14:29;;;;;;;14.43;6.17;;;21.40;98.00;;;;;;5010619;28;20455;-66
2023/06/21 02:16:57;;;;;;;10.87;5.57;;;21.20;98.00;;;;;;5011560;28;20451;-66
2023/06/21 02:19:24;;;;;;;14.50;6.77;;;21.30;98.00;;;;;;5012045;28;20566;-66
2023/06/21 02:21:54;;;;;;;12.60;6.10;;;21.10;98.00;;;;;;5011570;28;20526;-66
2023/06/21 02:24:21;;;;;;;11.70;6.00;;;21.10;98.00;;;;;;5011798;28;20473;-66
2023/06/21 02:26:48;;;;;;;8.83;5.37;;;21.00;98.00;;;;;;5011542;28;20459;-66
2023/06/21 02:29:15;;;;;;;9.87;5.33;;;21.10;98.00;;;;;;5011821;28;20459;-66
2023/06/21 02:31:42;;;;;;;11.83;6.50;;;21.20;98.00;;;;;;5012544;28;20834;-66
2023/06/21 02:34:09;;;;;;;11.37;6.27;;;21.30;98.00;;;;;;5015636;28;20503;-66
2023/06/21 02:36:38;;;;;;;11.67;6.13;;;21.10;98.00;;;;;;5015307;28;20455;-66
2023/06/21 02:39:07;;;;;;;10.00;5.60;;;21.00;98.00;;;;;;5014841;28;20451;-66
2023/06/21 02:41:34;;;;;;;17.00;6.00;;;20.90;98.00;;;;;;5015042;28;21015;-66
2023/06/21 02:44:01;;;;;;;12.17;5.83;;;20.90;98.00;;;;;;5014823;28;20455;-66
2023/06/21 02:46:28;;;;;;;12.10;6.20;;;21.00;98.00;;;;;;5013753;28;20462;-66
2023/06/21 02:48:55;;;;;;;11.60;6.40;;;21.10;98.00;;;;;;5014774;28;20478;-66
2023/06/21 02:51:24;;;;;;;11.17;6.43;;;21.00;98.00;;;;;;5014739;28;20475;-66
2023/06/21 02:53:52;;;;;;;11.70;6.47;;;20.90;98.00;;;;;;5014690;28;20455;-66
2023/06/21 02:56:21;;;;;;;17.83;6.43;;;20.90;98.00;;;;;;5014865;28;20996;-66
2023/06/21 02:58:48;;;;;;;11.67;6.17;;;20.70;98.00;;;;;;5013560;28;20464;-66
2023/06/21 03:01:16;;;;;;;11.97;6.20;;;20.60;98.00;;;;;;5014880;28;20554;-66
2023/06/21 03:03:44;;;;;;;16.80;7.30;;;20.50;98.00;;;;;;5014642;28;20451;-66
2023/06/21 03:06:11;;;;;;;15.17;6.87;;;20.60;98.00;;;;;;5014519;28;20464;-66
2023/06/21 03:08:39;;;;;;;12.53;6.43;;;20.70;98.00;;;;;;5013512;28;20948;-66
2023/06/21 03:11:08;;;;;;;13.80;6.33;;;20.80;98.00;;;;;;5014598;28;20460;-66
2023/06/21 03:13:37;;;;;;;12.20;6.27;;;20.90;98.00;;;;;;5014705;28;20455;-66
2023/06/21 03:16:04;;;;;;;13.43;6.87;;;20.90;98.00;;;;;;5014174;28;20547;-66
2023/06/21 03:18:34;;;;;;;10.90;6.10;;;20.80;98.00;;;;;;5013434;28;20464;-66
2023/06/21 03:21:01;;;;;;;10.27;5.93;;;20.80;98.00;;;;;;5014376;28;20491;-66
2023/06/21 03:23:29;;;;;;;11.53;6.43;;;20.70;98.00;;;;;;5013455;28;20458;-66
2023/06/21 03:25:56;;;;;;;18.00;9.20;;;20.60;98.00;;;;;;5014393;28;20534;-66
2023/06/21 03:28:23;;;;;;;21.77;9.57;;;20.40;98.00;;;;;;5014302;28;20547;-66
2023/06/21 03:30:52;;;;;;;14.93;6.53;;;20.30;98.00;;;;;;5014476;28;20464;-66
2023/06/21 03:33:19;;;;;;;10.60;5.90;;;20.30;98.00;;;;;;5014017;28;20462;-66
2023/06/21 03:35:46;;;;;;;10.80;6.03;;;20.30;98.00;;;;;;5012839;28;21011;-66
2023/06/21 03:38:13;;;;;;;11.33;6.07;;;20.40;98.00;;;;;;5012863;28;20459;-66
2023/06/21 03:40:40;;;;;;;15.20;6.83;;;20.50;98.00;;;;;;5013748;28;20487;-66
2023/06/21 03:43:07;;;;;;;12.03;6.20;;;20.60;98.00;;;;;;5012866;28;20454;-66
2023/06/21 03:45:34;;;;;;;14.47;5.63;;;20.70;98.00;;;;;;5013676;28;20554;-66
2023/06/21 03:48:05;;;;;;;10.80;5.97;;;20.90;98.00;;;;;;5013745;28;20506;-66
2023/06/21 03:50:32;;;;;;;10.63;5.87;;;21.00;98.00;;;;;;5013812;28;20502;-66
2023/06/21 03:52:59;;;;;;;15.90;6.50;;;20.90;98.00;;;;;;5013603;28;20495;-66
2023/06/21 03:55:27;;;;;;;12.20;6.43;;;20.90;98.00;;;;;;5012260;28;20549;-66
2023/06/21 03:57:54;;;;;;;12.00;6.10;;;21.10;98.00;;;;;;5013616;28;20980;-66
2023/06/21 04:00:21;;;;;;;12.10;6.10;;;21.30;98.00;;;;;;5013496;28;20462;-66
2023/06/21 04:02:48;;;;;;;11.10;6.20;;;21.50;98.00;;;;;;5013411;28;20479;-66
2023/06/21 04:05:16;;;;;;;9.70;5.87;;;21.50;98.00;;;;;;5013717;28;20455;-66
2023/06/21 04:07:44;;;;;;;11.93;6.30;;;21.50;98.00;;;;;;5013418;28;20455;-66
2023/06/21 04:10:13;;;;;;;12.93;6.80;;;21.50;98.00;;;;;;5013588;28;20467;-66
2023/06/21 04:12:40;;;;;;;17.60;7.53;;;21.50;98.00;;;;;;5013550;28;20456;-66
2023/06/21 04:15:09;;;;;;;16.77;6.57;;;21.40;98.00;;;;;;5013460;28;20474;-66
2023/06/21 04:17:37;;;;;;;12.03;6.27;;;21.30;98.00;;;;;;5012215;28;20463;-66
2023/06/21 04:20:10;;;;;;;11.90;6.53;;;21.20;98.00;;;;;;5013481;28;20546;-66
2023/06/21 04:22:39;;;;;;;12.37;6.67;;;21.30;98.00;;;;;;5013471;28;20463;-66
2023/06/21 04:25:06;;;;;;;11.43;6.33;;;21.30;98.00;;;;;;5013377;28;20459;-66
2023/06/21 04:27:33;;;;;;;10.43;6.43;;;21.40;98.00;;;;;;5012921;28;20464;-66
2023/06/21 04:30:00;;;;;;;12.57;6.47;;;21.40;98.00;;;;;;5013114;28;20827;-66
2023/06/21 04:32:31;;;;;;;13.67;6.53;;;21.50;98.00;;;;;;5012652;28;20466;-66
2023/06/21 04:34:59;;;;;;;16.40;7.80;;;21.50;98.00;;;;;;5012792;28;20521;-66
2023/06/21 04:37:26;;;;;;;11.73;6.30;;;21.60;98.00;;;;;;5012954;28;20981;-66
2023/06/21 04:39:54;;;;;;;17.40;6.77;;;21.60;98.00;;;;;;5011536;28;20494;-66
2023/06/21 04:42:22;;;;;;;15.20;7.33;;;21.50;98.00;;;;;;5012803;28;20487;-66
2023/06/21 04:44:50;;;;;;;11.23;6.50;;;21.40;98.00;;;;;;5012705;28;20518;-66
2023/06/21 04:47:17;;;;;;;16.70;7.17;;;21.40;98.00;;;;;;5012642;28;20518;-66
2023/06/21 04:49:45;;;;;;;10.80;5.93;;;21.40;98.00;;;;;;5012688;28;20852;-66
2023/06/21 04:52:12;;;;;;;14.10;6.97;;;21.50;98.00;;;;;;5012399;28;20526;-66
2023/06/21 04:54:39;;;;;;;14.03;6.60;;;21.70;98.00;;;;;;5012316;28;20452;-66
2023/06/21 04:57:12;;;;;;;12.30;6.90;;;21.60;98.00;;;;;;5012309;28;20486;-66
2023/06/21 04:59:39;;;;;;;13.87;6.60;;;21.60;98.00;;;;;;5012621;28;20460;-66
2023/06/21 05:02:06;;;;;;;14.43;7.10;;;21.70;98.00;;;;;;5012437;28;20491;-66
2023/06/21 05:04:33;;;;;;;19.77;7.60;;;21.70;98.00;;;;;;5012549;28;20515;-66
2023/06/21 05:07:00;;;;;;;17.60;7.57;;;21.70;98.00;;;;;;5012361;28;20960;-66
2023/06/21 05:09:27;;;;;;;13.30;6.90;;;21.70;98.00;;;;;;5012305;28;20926;-66
2023/06/21 05:11:56;;;;;;;13.37;7.13;;;;;;;;;;5012545;28;20459;-66
2023/06/21 05:14:25;;;;;;;16.37;7.23;;;22.00;98.00;;;;;;5012291;28;20488;-66
2023/06/21 05:16:52;;;;;;;12.17;7.20;;;22.20;98.00;;;;;;5012554;28;20463;-66
2023/06/21 05:19:20;;;;;;;11.23;6.30;;;22.30;98.00;;;;;;5012456;28;20459;-66
2023/06/21 05:21:47;;;;;;;13.03;6.97;;;22.30;98.00;;;;;;5012161;28;20483;-66
2023/06/21 05:24:14;;;;;;;12.67;6.57;;;22.30;98.00;;;;;;5012212;28;20467;-66
2023/06/21 05:26:44;;;;;;;20.27;6.90;;;22.40;98.00;;;;;;5012055;28;20459;-66
2023/06/21 05:29:11;;;;;;;10.00;6.20;;;22.50;98.00;;;;;;5012294;28;20459;-66
2023/06/21 05:31:43;;;;;;;12.83;6.07;;;22.50;98.00;;;;;;5012327;28;20900;-66
2023/06/21 05:34:12;;;;;;;10.80;5.70;;;22.60;98.00;;;;;;5011967;28;20589;-66
2023/06/21 05:36:39;;;;;;;9.27;5.27;;;22.70;98.00;;;;;;5012322;28;20518;-66
2023/06/21 05:39:07;;;;;;;8.20;4.47;;;22.70;98.00;;;;;;5010847;28;20463;-67
2023/06/21 05:41:34;;;;;;;10.80;5.60;;;22.70;98.00;;;;;;5011211;28;20483;-67
2023/06/21 05:44:01;;;;;;;13.80;6.13;;;22.70;98.00;;;;;;5012211;28;20478;-67
2023/06/21 05:46:28;;;;;;;10.73;5.73;;;22.80;98.00;;;;;;5011846;28;20456;-67
2023/06/21 05:48:57;;;;;;;7.17;5.10;;;22.90;98.00;;;;;;5012002;28;20478;-67
2023/06/21 05:51:25;;;;;;;9.27;4.83;;;22.90;98.00;;;;;;5011899;28;20969;-67
2023/06/21 05:53:52;;;;;;;10.27;5.37;;;23.10;98.00;;;;;;5012071;28;20473;-66
2023/06/21 05:56:24;;;;;;;8.60;4.90;;;23.00;98.00;;;;;;5012068;28;20855;-67
2023/06/21 05:58:52;;;;;;;6.47;4.30;;;23.10;98.00;;;;;;5010756;28;20455;-67
2023/06/21 06:01:19;;;;;;;8.90;5.23;;;23.10;98.00;;;;;;5010657;28;20483;-67
2023/06/21 06:03:46;;;;;;;10.40;5.80;;;23.30;98.00;;;;;;5011891;28;20458;-67
2023/06/21 06:06:16;;;;;;;7.97;4.67;;;23.50;98.00;;;;;;5013085;28;20473;-67
2023/06/21 06:08:43;;;;;;;10.60;5.33;;;23.40;98.00;;;;;;5015789;28;20455;-66
2023/06/21 06:11:11;;;;;;;8.70;4.70;;;23.60;98.00;;;;;;5015835;28;20462;-67
2023/06/21 06:13:38;;;;;;;7.97;4.93;;;23.70;98.00;;;;;;5015876;28;20499;-67
2023/06/21 06:16:05;;;;;;;8.33;4.77;;;23.60;98.00;;;;;;5015635;28;20467;-67
2023/06/21 06:18:35;;;;;;;9.47;5.73;;;23.70;98.00;;;;;;5015434;28;20787;-67
2023/06/21 06:21:02;;;;;;;8.40;4.80;;;23.70;98.00;;;;;;5015485;28;20977;-67
2023/06/21 06:23:30;;;;;;;9.23;5.20;;;23.90;98.00;;;;;;5015264;28;20512;-67
2023/06/21 06:25:57;;;;;;;9.60;5.50;;;24.00;98.00;;;;;;5015362;28;20462;-61
2023/06/21 06:28:24;;;;;;;7.80;5.20;;;24.10;98.00;;;;;;5015018;28;20471;-62
2023/06/21 06:30:51;;;;;;;12.03;5.47;;;24.20;98.00;;;;;;5015182;28;20455;-62
2023/06/21 06:33:18;;;;;;;9.00;5.10;;;24.00;98.00;;;;;;5015099;28;20459;-62
2023/06/21 06:35:45;;;;;;;10.40;5.90;;;23.90;98.00;;;;;;5014030;28;20514;-62
2023/06/21 06:38:12;;;;;;;8.67;4.87;;;23.90;98.00;;;;;;5015087;28;20463;-62
2023/06/21 06:40:41;;;;;;;7.20;4.80;;;23.80;98.00;;;;;;5015135;28;20462;-62
2023/06/21 06:43:09;;;;;;;9.93;5.37;;;24.00;98.00;;;;;;5014886;28;20483;-62
2023/06/21 06:45:36;;;;;;;10.03;5.60;;;24.30;98.00;;;;;;5013521;28;20456;-62
2023/06/21 06:48:03;;;;;;;12.67;6.00;;;24.50;98.00;;;;;;5013997;28;20463;-62
2023/06/21 06:50:31;;;;;;;9.27;4.93;;;24.40;98.00;;;;;;5015089;28;20462;-62
2023/06/21 06:52:58;;;;;;;8.97;5.07;;;24.60;98.00;;;;;;5013707;28;20463;-62
2023/06/21 06:55:25;;;;;;;10.07;5.10;;;24.70;98.00;;;;;;5014085;28;20796;-62
2023/06/21 06:57:58;;;;;;;9.20;5.00;;;25.10;98.00;;;;;;5014867;28;20463;-62
2023/06/21 07:00:26;;;;;;;8.40;5.10;;;25.30;98.00;;;;;;5014969;28;20854;-62
2023/06/21 07:02:56;;;;;;;10.30;5.37;;;25.30;98.00;;;;;;5014586;28;20490;-62
2023/06/21 07:05:23;;;;;;;11.90;5.60;;;25.40;98.00;;;;;;5015183;28;20455;-62
2023/06/21 07:07:51;;;;;;;8.43;4.97;;;25.60;98.00;;;;;;5014328;28;20517;-62
2023/06/21 07:10:18;;;;;;;8.10;4.90;;;25.70;98.00;;;;;;5014575;28;20463;-62
2023/06/21 07:12:45;;;;;;;7.40;4.43;;;25.90;98.00;;;;;;5014257;28;20459;-62
2023/06/21 07:15:13;;;;;;;8.20;5.10;;;26.00;98.00;;;;;;5014501;28;20460;-62
2023/06/21 07:17:41;;;;;;;8.13;5.03;;;26.00;98.00;;;;;;5014112;28;20952;-62
2023/06/21 07:20:10;;;;;;;9.70;4.97;;;26.10;98.00;;;;;;5014162;28;20463;-62
2023/06/21 07:22:37;;;;;;;9.87;5.17;;;26.20;98.00;;;;;;5014072;28;21064;-62
2023/06/21 07:25:04;;;;;;;9.43;5.10;;;26.40;98.00;;;;;;5014018;28;20471;-62
2023/06/21 07:27:31;;;;;;;8.70;4.70;;;26.20;98.00;;;;;;5013851;28;20471;-61
2023/06/21 07:29:58;;;;;;;8.03;4.87;;;26.00;98.00;;;;;;5013940;28;20459;-62
2023/06/21 07:32:27;;;;;;;13.10;4.50;;;26.00;98.00;;;;;;5012471;28;20513;-62
2023/06/21 07:34:57;;;;;;;9.50;5.10;;;26.00;98.00;;;;;;5013714;28;20590;-61
2023/06/21 07:37:25;;;;;;;7.60;5.03;;;26.00;98.00;;;;;;5013922;28;20462;-61
2023/06/21 07:39:52;;;;;;;7.20;4.50;;;26.10;98.00;;;;;;5013730;28;20458;-61
2023/06/21 07:42:19;;;;;;;7.80;4.60;;;26.20;98.00;;;;;;5013735;28;20488;-61
2023/06/21 07:44:46;;;;;;;7.37;4.40;;;26.10;98.00;;;;;;5013814;28;20459;-61
2023/06/21 07:47:13;;;;;;;8.50;4.90;;;26.20;98.00;;;;;;5013702;28;20464;-62
2023/06/21 07:49:46;;;;;;;9.03;4.50;;;26.20;98.00;;;;;;5013000;28;20455;-61
2023/06/21 07:52:14;;;;;;;6.93;4.47;;;26.40;98.00;;;;;;5012599;28;20455;-62
2023/06/21 07:54:42;;;;;;;8.30;4.40;;;26.20;98.00;;;;;;5013082;28;20456;-61
2023/06/21 07:57:09;;;;;;;7.17;4.20;;;26.30;98.00;;;;;;5011257;28;20455;-62
2023/06/21 07:59:37;;;;;;;7.50;3.90;;;26.30;98.00;;;;;;5012630;28;20455;-61
2023/06/21 08:02:04;;;;;;;8.63;4.23;;;26.30;98.00;;;;;;5013394;28;21028;-61
2023/06/21 08:04:31;;;;;;;7.00;4.03;;;26.40;98.00;;;;;;5012896;28;20514;-61
2023/06/21 08:07:00;;;;;;;8.63;4.70;;;26.20;98.00;;;;;;5011944;28;20463;-61
2023/06/21 08:09:27;;;;;;;10.03;4.03;;;26.30;98.00;;;;;;5013307;28;20455;-61
2023/06/21 08:11:54;;;;;;;8.57;3.93;;;26.40;98.00;;;;;;5012840;28;20483;-61
2023/06/21 08:16:52;;;;;;;6.90;4.43;;;26.30;98.00;;;;;;4950612;29;20489;-66
2023/06/21 08:19:19;;;;;;;9.77;5.40;;;26.40;98.00;;;;;;4952434;28;20525;-66
2023/06/21 08:21:46;;;;;;;8.60;4.37;;;26.40;98.00;;;;;;4951850;28;20520;-66
2023/06/21 08:24:18;;;;;;;8.27;4.90;;;26.30;98.00;;;;;;4953404;29;20457;-66
2023/06/21 08:26:45;;;;;;;7.90;4.90;;;26.50;98.00;;;;;;4952403;28;20470;-66
2023/06/21 08:29:15;;;;;;;9.27;4.50;;;26.40;98.00;;;;;;4953325;28;20466;-66
2023/06/21 08:31:42;;;;;;;8.37;4.60;;;26.40;98.00;;;;;;4954848;28;20972;-66
2023/06/21 08:34:09;;;;;;;6.00;3.80;;;26.50;98.00;;;;;;4954818;28;20467;-66
2023/06/21 08:36:36;;;;;;;8.50;4.50;;;26.70;98.00;;;;;;4954912;29;20459;-65
2023/06/21 08:39:03;;;;;;;9.00;4.60;;;26.80;98.00;;;;;;4953597;29;20956;-64
2023/06/21 08:41:32;;;;;;;8.40;4.80;;;26.80;98.00;;;;;;4954730;28;20457;-65
2023/06/21 08:43:59;;;;;;;10.37;5.30;;;26.80;98.00;;;;;;4953593;29;20949;-64
2023/06/21 08:46:28;;;;;;;7.50;4.33;;;26.60;98.00;;;;;;4954951;28;20521;-65
2023/06/21 08:49:01;;;;;;;9.10;5.20;;;26.50;98.00;;;;;;4954837;28;20820;-66
2023/06/21 08:51:28;;;;;;;8.60;4.73;;;26.50;98.00;;;;;;4954587;29;20454;-65
2023/06/21 08:54:01;;;;;;;8.90;4.60;;;26.40;98.00;;;;;;4954356;28;20474;-67
2023/06/21 08:56:29;;;;;;;8.87;4.80;;;26.30;98.00;;;;;;4954422;29;20458;-65
2023/06/21 08:59:04;;;;;;;9.50;4.90;;;26.10;98.00;;;;;;4954003;29;20461;-65
2023/06/21 09:01:37;;;;;;;9.67;4.90;;;25.80;98.00;;;;;;4953369;29;20561;-66
2023/06/21 09:04:08;;;;;;;8.63;4.50;;;25.70;98.00;;;;;;4953887;29;20482;-66
2023/06/21 09:06:35;;;;;;;8.33;5.30;;;25.60;98.00;;;;;;4952814;29;20525;-66
2023/06/21 09:09:02;;;;;;;8.83;4.80;;;25.60;98.00;;;;;;4953045;29;21065;-66
2023/06/21 09:11:30;;;;;;;10.43;4.77;;;25.40;98.00;;;;;;4953857;28;20521;-65
2023/06/21 09:13:59;;;;;;;7.53;4.83;;;25.40;98.00;;;;;;4952274;29;20521;-65
2023/06/21 09:16:27;;;;;;;10.53;5.23;;;25.30;98.00;;;;;;4953502;29;20957;-65
2023/06/21 09:18:54;;;;;;;13.20;4.93;;;24.90;98.00;;;;;;4953740;28;20458;-65
2023/06/21 09:21:22;;;;;;;12.70;6.30;;;24.60;98.00;;;;;;4953928;28;20458;-65
2023/06/21 09:23:49;;;;;;;8.87;4.93;;;24.60;98.00;;;;;;4955127;28;20992;-65
2023/06/21 09:26:16;;;;;;;9.67;5.27;;;24.30;98.00;;;;;;4972178;28;20465;-65
2023/06/21 09:28:44;;;;;;;11.77;6.43;;;24.20;98.00;;;;;;4973169;28;20540;-65
2023/06/21 09:33:41;;;;;;;9.00;5.60;;;23.80;98.00;;;;;;4971371;28;20514;-66
2023/06/21 09:36:09;;;;;;;16.83;6.60;;;23.60;98.00;;;;;;4972980;28;20540;-65
2023/06/21 09:38:38;;;;;;;11.47;6.37;;;23.60;98.00;;;;;;4972937;28;20545;-65
2023/06/21 09:41:07;;;;;;;12.03;6.27;;;23.50;98.00;;;;;;4974133;28;20468;-64
2023/06/21 09:43:49;;;;;;;13.33;6.30;;;23.20;98.00;;;;;;4977207;28;20488;-65
2023/06/21 09:46:16;;;;;;;15.40;7.23;;;23.10;98.00;;;;;;5170774;22;20434;-65
2023/06/21 09:48:45;;;;;;;15.70;6.20;;;23.00;98.00;;;;;;5015631;28;20830;-64
2023/06/21 09:51:19;;;;;;;19.50;6.50;;;22.90;98.00;;;;;;5015809;28;20463;-64
2023/06/21 09:53:47;;;;;;;9.50;5.20;;;22.90;98.00;;;;;;5015577;28;20563;-63
2023/06/21 09:56:17;;;;;;;19.43;5.70;;;23.20;98.00;;;;;;5015601;28;21024;-64
2023/06/21 09:58:47;;;;;;;10.23;5.90;;;23.30;98.00;;;;;;5015750;28;20542;-63
2023/06/21 10:01:15;;;;;;;10.83;5.83;;;23.40;98.00;;;;;;5015223;28;20468;-63
2023/06/21 10:03:45;;;;;;;13.77;5.90;;;23.20;98.00;;;;;;5015246;28;20585;-62
2023/06/21 10:06:16;;;;;;;13.67;5.83;;;23.20;98.00;;;;;;5014251;28;20491;-63
2023/06/21 10:08:45;;;;;;;9.87;6.10;;;23.40;98.00;;;;;;5014879;28;20973;-64
2023/06/21 10:11:16;;;;;;;8.07;5.13;;;23.60;98.00;;;;;;5015492;28;20455;-64
2023/06/21 10:13:43;;;;;;;12.57;5.93;;;23.60;98.00;;;;;;5014323;28;20452;-67
2023/06/21 10:16:11;;;;;;;11.67;5.90;;;23.50;98.00;;;;;;5015418;28;20462;-68
2023/06/21 10:18:38;;;;;;;12.77;5.87;;;23.40;98.00;;;;;;5015636;28;20459;-70
2023/06/21 10:21:09;;;;;;;10.50;5.23;;;23.30;98.00;;;;;;5015419;28;20537;-67
2023/06/21 10:23:40;;;;;;;11.20;5.67;;;23.10;98.00;;;;;;5015350;28;20484;-66
2023/06/21 10:26:12;;;;;;;8.57;5.47;;;23.00;98.00;;;;;;5014975;28;20460;-66
2023/06/21 10:28:42;;;;;;;10.13;5.93;;;22.90;98.00;;;;;;5015302;28;20933;-66
2023/06/21 10:31:10;;;;;;;9.60;5.40;;;22.80;98.00;;;;;;5015276;28;20459;-66
2023/06/21 10:33:38;;;;;;;13.10;5.03;;;22.90;98.00;;;;;;5015299;28;20550;-67
2023/06/21 10:36:12;;;;;;;11.63;5.40;;;22.70;98.00;;;;;;5015085;28;20455;-66
2023/06/21 10:38:44;;;;;;;9.30;4.90;;;22.60;98.00;;;;;;5015329;28;21054;-66
2023/06/21 10:41:14;;;;;;;11.97;5.60;;;22.70;98.00;;;;;;5015470;28;20463;-65
2023/06/21 10:43:43;;;;;;;11.57;5.70;;;22.80;98.00;;;;;;5015043;28;20588;-66
2023/06/21 10:46:11;;;;;;;6.97;4.67;;;22.90;98.00;;;;;;5013380;28;20463;-66
2023/06/21 10:48:38;;;;;;;13.23;4.70;;;22.90;98.00;;;;;;5014908;28;20937;-66
2023/06/21 10:51:08;;;;;;;7.53;4.57;;;23.00;98.00;;;;;;5014674;28;20474;-66
2023/06/21 10:53:37;;;;;;;10.53;5.20;;;23.10;98.00;;;;;;5014385;28;20459;-66
2023/06/21 10:56:06;;;;;;;10.13;5.30;;;23.20;98.00;;;;;;5014682;28;21039;-66
2023/06/21 10:58:33;;;;;;;10.40;5.70;;;23.20;98.00;;;;;;5014707;28;20559;-66
2023/06/21 11:01:01;;;;;;;16.80;5.57;;;23.50;98.00;;;;;;5013472;28;20455;-66
2023/06/21 11:03:28;;;;;;;13.87;6.13;;;23.60;98.00;;;;;;5014515;28;21009;-66
2023/06/21 11:05:56;;;;;;;11.47;6.00;;;23.60;98.00;;;;;;5014589;28;20542;-66
2023/06/21 11:08:31;;;;;;;15.90;6.57;;;23.50;98.00;;;;;;5013280;28;20464;-66
2023/06/21 11:10:59;;;;;;;9.50;5.63;;;23.60;98.00;;;;;;5014498;28;20570;-66
2023/06/21 11:13:37;;;;;;;12.77;6.50;;;23.60;98.00;;;;;;5012058;28;20537;-66
2023/06/21 11:16:13;;;;;;;10.63;5.80;;;23.60;98.00;;;;;;5013088;28;20463;-66
2023/06/21 11:18:40;;;;;;;9.10;5.43;;;23.40;98.00;;;;;;5014529;28;20451;-66
2023/06/21 11:21:08;;;;;;;11.47;6.30;;;23.40;98.00;;;;;;5014468;28;20475;-66
2023/06/21 11:23:50;;;;;;;11.07;5.43;;;23.60;98.00;;;;;;5014333;28;21067;-66
2023/06/21 11:26:18;;;;;;;12.47;5.80;;;23.70;98.00;;;;;;5014292;28;20462;-66
2023/06/21 11:28:48;;;;;;;10.43;5.73;;;23.80;98.00;;;;;;5013909;28;20459;-67
2023/06/21 11:31:17;;;;;;;10.57;5.90;;;24.00;98.00;;;;;;5014305;28;20510;-64
2023/06/21 11:33:55;;;;;;;11.20;4.90;;;24.10;98.00;;;;;;5012574;28;20463;-64
2023/06/21 11:36:44;;;;;;;8.27;5.33;;;24.50;98.00;;;;;;5040731;22;20499;-90
2023/06/21 11:39:28;;;;;;;11.97;5.10;;;24.80;98.00;;;;;;5014175;28;21086;-89
2023/06/21 11:42:00;;;;;;;12.07;6.00;;;25.10;98.00;;;;;;5012494;28;20459;-89
2023/06/21 11:44:29;;;;;;;10.30;5.60;;;25.70;98.00;;;;;;5012097;28;20918;-89
2023/06/21 11:47:18;;;;;;;10.00;5.90;;;26.20;98.00;;;;;;5012161;28;20522;-90
2023/06/21 11:50:09;;;;;;;10.80;5.80;;;;;;;;;;5013328;28;20662;-90
2023/06/21 11:52:36;;;;;;;9.13;5.30;;;27.00;98.00;;;;;;5010318;28;20463;-90
2023/06/21 11:55:16;;;;;;;11.53;5.77;;;27.10;98.00;;;;;;5013833;28;20483;-90
2023/06/21 11:57:44;;;;;;;8.97;5.70;;;27.00;98.00;;;;;;5013157;28;20521;-90
2023/06/21 12:00:13;;;;;;;11.30;5.33;;;26.90;98.00;;;;;;5013935;28;20791;-90
2023/06/21 12:02:40;;;;;;;10.07;5.53;;;27.00;98.00;;;;;;5013706;28;20459;-90
2023/06/21 12:05:09;;;;;;;8.30;5.13;;;27.00;98.00;;;;;;5012732;28;20487;-90
2023/06/21 12:07:36;;;;;;;10.73;5.60;;;27.10;98.00;;;;;;5012307;28;20467;-89
2023/06/21 12:10:05;;;;;;;9.27;5.60;;;27.20;98.00;;;;;;5013337;28;20467;-90
2023/06/21 12:12:33;;;;;;;11.07;6.60;;;27.10;98.00;;;;;;5013735;28;20541;-90
2023/06/21 12:15:01;;;;;;;9.07;5.20;;;27.00;98.00;;;;;;5013531;28;20484;-90
2023/06/21 12:17:28;;;;;;;10.30;6.47;;;26.70;98.00;;;;;;5013139;28;20502;-91
2023/06/21 12:20:10;;;;;;;11.80;6.47;;;26.70;98.00;;;;;;5014790;28;20470;-91
2023/06/21 12:25:59;;;;;;;9.30;5.93;;;27.60;98.00;;;;;;4988286;28;20464;-90
2023/06/21 12:28:28;;;;;;;11.57;6.77;;;28.00;98.00;;;;;;5014255;28;20482;-91
2023/06/21 12:31:12;;;;;;;14.50;6.77;;;28.50;98.00;;;;;;5013693;28;20463;-89
2023/06/21 12:37:32;;;;;;;12.80;6.10;;;28.90;98.00;;;;;;4997659;28;20455;-91
2023/06/21 12:40:01;;;;;;;12.77;6.27;;;29.30;98.00;;;;;;5013694;28;20879;-90
2023/06/21 12:42:30;;;;;;;12.27;6.97;;;29.60;98.00;;;;;;5013766;28;20513;-90
2023/06/21 12:45:49;;;;;;;14.03;6.97;;;29.80;98.00;;;;;;5014679;28;20483;-92
2023/06/21 12:55:21;;;;;;;12.30;6.50;;;30.50;98.00;;;;;;4990848;22;20541;-67
2023/06/21 12:57:48;;;;;;;14.03;6.90;;;;;;;;;;5012538;28;20989;-66
2023/06/21 13:00:16;;;;;;;11.30;6.80;;;31.00;98.00;;;;;;5011475;28;20467;-65
2023/06/21 13:02:45;;;;;;;11.80;6.83;;;30.80;97.80;;;;;;5012530;28;20455;-67
2023/06/21 13:05:12;;;;;;;12.30;6.40;;;30.50;98.00;;;;;;5010918;28;20502;-67
2023/06/21 13:07:42;;;;;;;11.63;6.40;;;30.30;98.00;;;;;;5011475;28;20826;-67
2023/06/21 13:10:10;;;;;;;12.07;6.57;;;30.20;98.00;;;;;;5011607;28;20467;-67